Monday, December 18, 2017, 7:54 AM EST
Back to Local

KPEO, Penn Yan Airport

Location: Penn Yan, NY, United States Lat: 42.65
Local Time: 7:54 AM EST (12:54 GMT) Lon: -77.05
Time Zone: US/Eastern Elev: 977 ft

Show me the last for .
Show Decoded

2017-12-18 07:20 METAR KPEO 181220Z AUTO 21007KT 7SM BKN019 OVC110 02/M02 A2999 RMK AO2 T00171017
                 =
2017-12-18 07:05 METAR KPEO 181205Z AUTO 22007KT 7SM SCT019 OVC110 02/M02 A3000 RMK AO2 T00171017
                 =
2017-12-18 06:53 METAR KPEO 181153Z AUTO 21007KT 7SM BKN018 OVC110 02/M02 A3000 RMK AO2 SLP172
                 T00171017 10017 21017 55002 =
2017-12-18 05:53 METAR KPEO 181053Z AUTO 21005KT 7SM OVC017 01/M02 A2999 RMK AO2 SLP169 T00111022
                 =
2017-12-18 05:01 METAR KPEO 181001Z AUTO 21008KT 8SM BKN018 OVC050 01/M02 A3001 RMK AO2 T00111022
                 =
2017-12-18 04:53 METAR KPEO 180953Z AUTO 22009KT 7SM SCT018 OVC049 01/M02 A3001 RMK AO2 SLP174
                 T00111022 =
2017-12-18 03:53 METAR KPEO 180853Z AUTO 22005KT 7SM FEW060 OVC090 00/M03 A3001 RMK AO2 SLP174
                 T00001033 56014 =
2017-12-18 02:53 METAR KPEO 180753Z AUTO 22004KT 8SM OVC080 M01/M04 A3002 RMK AO2 SLP178
                 T10061039 =
2017-12-18 01:53 METAR KPEO 180653Z AUTO 22007KT 8SM OVC110 M01/M04 A3003 RMK AO2 SLP183
                 T10111044 =
2017-12-18 00:53 METAR KPEO 180553Z AUTO 21005KT 9SM CLR M02/M05 A3005 RMK AO2 SLP189 60000
                 T10171050 11017 21050 56018 =
2017-12-17 23:53 METAR KPEO 180453Z AUTO 21005KT 9SM BKN120 M02/M06 A3007 RMK AO2 SLP196
                 T10221056 410221067 =
2017-12-17 22:53 METAR KPEO 180353Z AUTO 20003KT 10SM FEW120 M04/M07 A3007 RMK AO2 SLP198
                 T10391072 =
2017-12-17 21:53 METAR KPEO 180253Z AUTO 00000KT 10SM FEW055 FEW100 SCT120 M04/M07 A3010 RMK AO2
                 SLP209 60000 T10441072 58022 =
2017-12-17 20:53 METAR KPEO 180153Z AUTO 00000KT 10SM OVC046 M04/M08 A3014 RMK AO2 SNE0054 SLP221
                 P0000 T10441078 =
2017-12-17 19:53 METAR KPEO 180053Z AUTO 18003KT 5SM -SN OVC043 M05/M08 A3016 RMK AO2 SNB14
                 SLP229 P0000 T10501083 =
2017-12-17 18:53 METAR KPEO 172353Z AUTO 00000KT 10SM FEW080 BKN100 BKN110 M05/M09 A3017 RMK AO2
                 SLP233 T10501089 11039 21056 58007 =
2017-12-17 17:53 METAR KPEO 172253Z AUTO 00000KT 10SM CLR M05/M09 A3019 RMK AO2 SLP239 T10501089
                 =
2017-12-17 16:53 METAR KPEO 172153Z AUTO 11003KT 10SM CLR M05/M09 A3019 RMK AO2 SLP239 T10501094
                 =
2017-12-17 15:53 METAR KPEO 172053Z AUTO 00000KT 10SM CLR M04/M09 A3019 RMK AO2 SLP239 T10441094
                 56008 =
2017-12-17 14:53 METAR KPEO 171953Z AUTO 00000KT 10SM OVC047 M04/M10 A3019 RMK AO2 SLP240
                 T10441100 =
2017-12-17 13:53 METAR KPEO 171853Z AUTO 00000KT 10SM OVC046 M04/M11 A3021 RMK AO2 SLP245
                 T10441106 =
2017-12-17 13:13 METAR KPEO 171813Z AUTO 00000KT 10SM SCT018 BKN046 M04/M11 A3022 RMK AO2
                 T10441111 =
2017-12-17 12:53 METAR KPEO 171753Z AUTO 00000KT 10SM BKN018 M05/M11 A3022 RMK AO2 SLP248
                 T10501106 11044 21067 58022 =
2017-12-17 11:53 METAR KPEO 171653Z AUTO 00000KT 10SM BKN018 BKN049 M05/M10 A3025 RMK AO2 SLP258
                 T10501100 =
2017-12-17 10:53 METAR KPEO 171553Z AUTO 09003KT 10SM OVC020 M05/M10 A3028 RMK AO2 SLP270
                 T10501100 =
2017-12-17 09:53 METAR KPEO 171453Z AUTO 00000KT 10SM OVC021 M06/M10 A3028 RMK AO2 SLP270
                 T10561100 53010 =
2017-12-17 08:53 METAR KPEO 171353Z AUTO 00000KT 10SM OVC021 M06/M10 A3026 RMK AO2 SLP265
                 T10611100 =

Support USWX by starting your Amazon purchase here.